aviador You're here:

KEUF Decoded Metar

in _UNIDENTIFIED
Report Time2017-11-21 05:58:00
UTC Time2017-11-21 06:21:11
Flight Rules vfr VFR
WindCalm
Visibility9999 m
Phenomena:N/A
Clouds:N/A
Expected CloudBase > 400 ft AGL from Temp-Dew spread
CeilingNone
Temp05°C (ISA -9)
Dew Point04°C (93% RH)
AAT3.7°C
QNH1020 hPa
Density Alt-981 ft
Elevation285 ft
Report Wrong Elevation
Raw Report
METAR KEUF 210558Z AUTO 00000KT 10SM CLR 05/04 A3013 RMK AO2 SLP202
I1000 I6/// T00500044 10089 20044 401831017 58008=

Extra information for KEUF:More info

Metar Taf Metar & Taf Last 4 Metars F.Rules Stats Wind Profile Meteogram Temp Stats Metar ALERT Operation Metar Decoded Social comments